Time;durP1;ratioP1;P1;durP2;ratioP2;P2;SDS_P1;SDS_P2;PMS_P1;PMS_P2;Temp;Humidity;BMP_temperature;BMP_pressure;BME280_temperature;BME280_humidity;BME280_pressure;Samples;Min_cycle;Max_cycle;Signal;HPM_P1;HPM_P2
2023/08/02 00:01:55;;;;;;;0.30;0.30;;;15.70;99.90;;;;;;5093472;28;20039;-73
2023/08/02 00:04:21;;;;;;;0.30;0.30;;;15.70;99.90;;;;;;5093333;28;20058;-73
2023/08/02 00:06:47;;;;;;;0.37;0.37;;;15.60;99.90;;;;;;5093358;28;20040;-73
2023/08/02 00:09:12;;;;;;;0.30;0.30;;;15.60;99.90;;;;;;5092884;28;20036;-73
2023/08/02 00:11:38;;;;;;;0.30;0.30;;;15.60;99.90;;;;;;5093368;28;20132;-73
2023/08/02 00:14:03;;;;;;;0.60;0.40;;;15.60;99.90;;;;;;5093371;28;20079;-74
2023/08/02 00:16:29;;;;;;;0.30;0.30;;;15.60;99.90;;;;;;5093339;28;20472;-73
2023/08/02 00:18:55;;;;;;;0.20;0.20;;;15.60;99.90;;;;;;5093224;28;20106;-73
2023/08/02 00:21:21;;;;;;;0.40;0.40;;;15.70;99.90;;;;;;5095186;28;20047;-73
2023/08/02 00:23:46;;;;;;;0.30;0.30;;;15.60;99.90;;;;;;5096646;28;20044;-73
2023/08/02 00:26:12;;;;;;;0.37;0.37;;;15.60;99.90;;;;;;5097055;28;20051;-73
2023/08/02 00:28:37;;;;;;;0.30;0.30;;;15.60;99.90;;;;;;5096708;28;20067;-73
2023/08/02 00:31:03;;;;;;;0.50;0.43;;;15.60;99.90;;;;;;5097029;28;20172;-73
2023/08/02 00:33:29;;;;;;;0.30;0.30;;;15.60;99.90;;;;;;5096673;28;20036;-73
2023/08/02 00:35:54;;;;;;;0.40;0.40;;;15.60;99.90;;;;;;5096763;28;20043;-73
2023/08/02 00:38:21;;;;;;;0.40;0.40;;;15.60;99.90;;;;;;5096562;28;20128;-73
2023/08/02 00:40:48;;;;;;;0.40;0.40;;;15.60;99.90;;;;;;5096609;28;20036;-73
2023/08/02 00:43:14;;;;;;;0.35;0.35;;;15.60;99.90;;;;;;5096771;28;20040;-73
2023/08/02 00:45:40;;;;;;;0.30;0.30;;;15.60;99.90;;;;;;5096704;28;20047;-73
2023/08/02 00:48:05;;;;;;;0.30;0.30;;;15.60;99.90;;;;;;5096773;28;20376;-73
2023/08/02 00:50:33;;;;;;;0.30;0.30;;;15.60;99.90;;;;;;5095145;28;20040;-73
2023/08/02 00:53:00;;;;;;;0.30;0.30;;;15.60;99.90;;;;;;5096313;28;20131;-73
2023/08/02 00:55:26;;;;;;;0.30;0.30;;;15.60;99.90;;;;;;5096614;28;20092;-73
2023/08/02 00:57:52;;;;;;;0.30;0.30;;;15.60;99.90;;;;;;5096439;28;20040;-73
2023/08/02 01:00:17;;;;;;;0.70;0.70;;;15.60;99.90;;;;;;5096391;28;20533;-73
2023/08/02 01:02:43;;;;;;;0.47;0.47;;;15.60;99.90;;;;;;5096663;28;20487;-73
2023/08/02 01:05:09;;;;;;;0.37;0.37;;;15.60;99.90;;;;;;5096207;28;20115;-73
2023/08/02 01:07:40;;;;;;;0.30;0.30;;;15.60;99.90;;;;;;5096197;28;20044;-73
2023/08/02 01:10:39;;;;;;;0.40;0.40;;;15.60;99.90;;;;;;5095848;28;20044;-73
2023/08/02 01:13:06;;;;;;;0.55;0.55;;;15.60;99.90;;;;;;5095809;28;20048;-73
2023/08/02 01:15:33;;;;;;;0.30;0.30;;;15.60;99.90;;;;;;5095950;28;20079;-73
2023/08/02 01:18:00;;;;;;;0.30;0.30;;;15.70;99.90;;;;;;5095724;28;20032;-73
2023/08/02 01:20:26;;;;;;;0.30;0.30;;;15.60;99.90;;;;;;5096268;28;20048;-73
2023/08/02 01:22:51;;;;;;;0.33;0.33;;;15.60;99.90;;;;;;5095895;28;20491;-73
2023/08/02 01:25:17;;;;;;;0.30;0.30;;;15.60;99.90;;;;;;5095625;28;20371;-73
2023/08/02 01:27:58;;;;;;;0.30;0.30;;;15.60;99.90;;;;;;5095719;28;20047;-73
2023/08/02 01:30:29;;;;;;;0.30;0.30;;;15.60;99.90;;;;;;5095866;28;20130;-73
2023/08/02 01:32:55;;;;;;;0.30;0.30;;;15.60;99.90;;;;;;5095266;28;20036;-73
2023/08/02 01:35:21;;;;;;;0.30;0.30;;;15.50;99.90;;;;;;5095764;28;20032;-73
2023/08/02 01:37:48;;;;;;;1.83;1.03;;;15.60;99.90;;;;;;5094328;28;20434;-73
2023/08/02 01:40:14;;;;;;;0.30;0.30;;;15.60;99.90;;;;;;5095668;28;20040;-73
2023/08/02 01:42:39;;;;;;;0.30;0.30;;;15.60;99.90;;;;;;5095223;28;20043;-73
2023/08/02 01:45:06;;;;;;;0.30;0.30;;;15.60;99.90;;;;;;5095467;28;20376;-73
2023/08/02 01:47:31;;;;;;;0.30;0.30;;;15.60;99.90;;;;;;5095299;28;20036;-73
2023/08/02 01:49:57;;;;;;;0.50;0.50;;;15.60;99.90;;;;;;5095287;28;20059;-73
2023/08/02 01:52:23;;;;;;;0.50;0.40;;;15.60;99.90;;;;;;5095479;28;20059;-73
2023/08/02 01:54:48;;;;;;;0.30;0.30;;;15.60;99.90;;;;;;5095075;28;20036;-73
2023/08/02 01:57:14;;;;;;;0.30;0.30;;;15.50;99.90;;;;;;5094970;28;20054;-73
2023/08/02 01:59:40;;;;;;;0.30;0.30;;;15.60;99.90;;;;;;5094796;28;20122;-73
2023/08/02 02:02:05;;;;;;;0.30;0.30;;;15.60;99.90;;;;;;5095457;28;20083;-73
2023/08/02 02:04:31;;;;;;;0.30;0.30;;;15.60;99.90;;;;;;5095012;28;20044;-73
2023/08/02 02:06:56;;;;;;;0.73;0.73;;;15.60;99.90;;;;;;5094997;28;20464;-73
2023/08/02 02:09:22;;;;;;;0.37;0.37;;;15.70;99.90;;;;;;5095228;28;20062;-73
2023/08/02 02:11:48;;;;;;;0.43;0.40;;;15.60;99.90;;;;;;5094978;28;20042;-73
2023/08/02 02:14:14;;;;;;;0.50;0.40;;;15.50;99.90;;;;;;5094921;28;20040;-73
2023/08/02 02:16:40;;;;;;;0.93;0.52;;;15.50;99.90;;;;;;5093741;28;20044;-72
2023/08/02 02:19:05;;;;;;;0.40;0.40;;;15.40;99.90;;;;;;5094665;28;20044;-73
2023/08/02 02:21:31;;;;;;;0.30;0.30;;;15.50;99.90;;;;;;5094884;28;20500;-73
2023/08/02 02:23:56;;;;;;;0.57;0.57;;;15.40;99.90;;;;;;5094711;28;20040;-73
2023/08/02 02:26:25;;;;;;;0.30;0.30;;;15.40;99.90;;;;;;5094749;28;20032;-73
2023/08/02 02:28:50;;;;;;;0.30;0.30;;;15.40;99.90;;;;;;5094548;28;20043;-73
2023/08/02 02:31:16;;;;;;;0.30;0.30;;;15.40;99.90;;;;;;5094866;28;20127;-73
2023/08/02 02:33:42;;;;;;;0.30;0.30;;;15.30;99.90;;;;;;5094512;28;20047;-73
2023/08/02 02:36:07;;;;;;;0.30;0.30;;;15.30;99.90;;;;;;5094304;28;20063;-73
2023/08/02 02:38:33;;;;;;;0.30;0.30;;;15.30;99.90;;;;;;5094281;28;20046;-73
2023/08/02 02:40:58;;;;;;;0.30;0.30;;;15.30;99.90;;;;;;5094308;28;20047;-73
2023/08/02 02:43:24;;;;;;;0.30;0.30;;;15.30;99.90;;;;;;5094158;28;20071;-73
2023/08/02 02:45:50;;;;;;;0.30;0.30;;;15.30;99.90;;;;;;5093987;28;20076;-73
2023/08/02 02:48:16;;;;;;;0.30;0.30;;;15.20;99.90;;;;;;5094266;28;20123;-73
2023/08/02 02:50:42;;;;;;;0.57;0.53;;;15.20;99.90;;;;;;5094345;28;20397;-73
2023/08/02 02:53:07;;;;;;;0.30;0.30;;;15.20;99.90;;;;;;5094307;28;20032;-73
2023/08/02 02:55:33;;;;;;;0.50;0.50;;;15.20;99.90;;;;;;5094073;28;20209;-73
2023/08/02 02:57:59;;;;;;;0.30;0.30;;;15.10;99.90;;;;;;5093866;28;20044;-73
2023/08/02 03:00:24;;;;;;;0.50;0.50;;;15.20;99.90;;;;;;5094455;28;20036;-73
2023/08/02 03:02:50;;;;;;;0.30;0.30;;;15.10;99.90;;;;;;5093935;28;20094;-73
2023/08/02 03:05:16;;;;;;;0.50;0.43;;;15.00;99.90;;;;;;5093947;28;20127;-73
2023/08/02 03:07:41;;;;;;;0.33;0.33;;;15.00;99.90;;;;;;5094052;28;20081;-73
2023/08/02 03:10:07;;;;;;;0.55;0.50;;;14.90;99.90;;;;;;5093863;28;20043;-73
2023/08/02 03:12:33;;;;;;;0.87;0.70;;;14.90;99.90;;;;;;5093666;28;20036;-73
2023/08/02 03:14:58;;;;;;;2.35;0.50;;;14.80;99.90;;;;;;5094089;28;20047;-73
2023/08/02 03:17:24;;;;;;;0.30;0.30;;;14.80;99.90;;;;;;5093922;28;20040;-73
2023/08/02 03:19:49;;;;;;;0.30;0.30;;;14.80;99.90;;;;;;5092274;28;20125;-73
2023/08/02 03:22:15;;;;;;;0.60;0.60;;;14.70;99.90;;;;;;5093870;28;20136;-73
2023/08/02 03:24:41;;;;;;;0.40;0.40;;;14.70;99.90;;;;;;5093855;28;20036;-73
2023/08/02 03:27:06;;;;;;;0.40;0.40;;;14.70;99.90;;;;;;5093429;28;20085;-73
2023/08/02 03:29:32;;;;;;;0.57;0.57;;;14.60;99.90;;;;;;5093785;28;20051;-73
2023/08/02 03:31:58;;;;;;;0.30;0.30;;;14.60;99.90;;;;;;5093440;28;20032;-73
2023/08/02 03:34:23;;;;;;;0.37;0.37;;;14.60;99.90;;;;;;5093634;28;20490;-73
2023/08/02 03:36:49;;;;;;;0.40;0.40;;;14.50;99.90;;;;;;5093824;28;20047;-73
2023/08/02 03:39:14;;;;;;;0.40;0.40;;;14.50;99.90;;;;;;5093593;28;20032;-73
2023/08/02 03:41:40;;;;;;;0.40;0.40;;;14.50;99.90;;;;;;5093411;28;20076;-73
2023/08/02 03:44:06;;;;;;;0.60;0.60;;;14.50;99.90;;;;;;5093468;28;20530;-72
2023/08/02 03:46:31;;;;;;;0.60;0.60;;;14.50;99.90;;;;;;5093562;28;20047;-73
2023/08/02 03:48:57;;;;;;;0.30;0.30;;;14.50;99.90;;;;;;5093433;28;20373;-73
2023/08/02 03:51:23;;;;;;;0.50;0.50;;;14.50;99.90;;;;;;5093545;28;20037;-73
2023/08/02 03:53:48;;;;;;;1.00;0.90;;;14.50;99.90;;;;;;5093373;28;20047;-73
2023/08/02 03:56:14;;;;;;;0.60;0.40;;;14.50;99.90;;;;;;5095569;28;20040;-73
2023/08/02 03:58:39;;;;;;;0.50;0.50;;;14.50;99.90;;;;;;5097090;28;20062;-73
2023/08/02 04:01:05;;;;;;;1.15;0.68;;;14.50;99.90;;;;;;5097360;28;20075;-73
2023/08/02 04:03:31;;;;;;;1.50;0.70;;;14.50;99.90;;;;;;5097534;28;20040;-73
2023/08/02 04:05:56;;;;;;;0.47;0.47;;;14.50;99.90;;;;;;5097451;28;20126;-73
2023/08/02 04:08:22;;;;;;;0.32;0.32;;;14.50;99.90;;;;;;5097393;28;20036;-73
2023/08/02 04:10:47;;;;;;;0.30;0.30;;;14.50;99.90;;;;;;5097108;28;20040;-73
2023/08/02 04:13:13;;;;;;;0.40;0.40;;;14.50;99.90;;;;;;5096931;28;20035;-73
2023/08/02 04:15:39;;;;;;;0.82;0.40;;;14.50;99.90;;;;;;5096054;28;20040;-73
2023/08/02 04:18:04;;;;;;;0.60;0.60;;;14.60;99.90;;;;;;5097009;28;20456;-73
2023/08/02 04:20:30;;;;;;;0.50;0.50;;;14.50;99.90;;;;;;5097249;28;20519;-73
2023/08/02 04:22:56;;;;;;;2.13;1.10;;;14.60;99.90;;;;;;5097309;28;20043;-73
2023/08/02 04:25:21;;;;;;;0.40;0.40;;;14.50;99.90;;;;;;5097086;28;20028;-73
2023/08/02 04:27:47;;;;;;;0.40;0.40;;;14.50;99.90;;;;;;5097010;28;20131;-73
2023/08/02 04:30:13;;;;;;;0.60;0.40;;;14.50;99.90;;;;;;5096821;28;20040;-73
2023/08/02 04:32:39;;;;;;;0.67;0.67;;;14.50;99.90;;;;;;5097019;28;20101;-73
2023/08/02 04:35:04;;;;;;;0.50;0.50;;;14.60;99.90;;;;;;5097054;28;20459;-72
2023/08/02 04:37:30;;;;;;;0.70;0.70;;;14.60;99.90;;;;;;5096793;28;20492;-73
2023/08/02 04:39:56;;;;;;;0.40;0.40;;;14.60;99.90;;;;;;5097055;28;20032;-73
2023/08/02 04:42:21;;;;;;;1.00;0.90;;;14.60;99.90;;;;;;5096429;28;20104;-72
2023/08/02 04:44:47;;;;;;;0.40;0.40;;;14.60;99.90;;;;;;5095398;28;20388;-73
2023/08/02 04:47:12;;;;;;;0.67;0.50;;;14.60;99.90;;;;;;5096879;28;20043;-73
2023/08/02 04:49:38;;;;;;;0.45;0.45;;;14.60;99.90;;;;;;5096613;28;20126;-72
2023/08/02 04:52:04;;;;;;;1.10;0.50;;;14.70;99.90;;;;;;5096565;28;20039;-73
2023/08/02 04:54:30;;;;;;;2.13;0.77;;;14.70;99.90;;;;;;5096270;28;20040;-73
2023/08/02 04:56:55;;;;;;;0.43;0.43;;;14.70;99.90;;;;;;5096536;28;20288;-73
2023/08/02 04:59:23;;;;;;;0.30;0.30;;;14.70;99.90;;;;;;5096102;28;20032;-73
2023/08/02 05:01:48;;;;;;;0.63;0.63;;;14.80;99.90;;;;;;5096290;28;20036;-73
2023/08/02 05:04:14;;;;;;;0.50;0.50;;;14.80;99.90;;;;;;5096392;28;20083;-73
2023/08/02 05:06:40;;;;;;;0.30;0.30;;;14.90;99.90;;;;;;5096058;28;20428;-73
2023/08/02 05:09:06;;;;;;;0.73;0.73;;;14.90;99.90;;;;;;5096091;28;20058;-73
2023/08/02 05:11:32;;;;;;;0.32;0.32;;;14.90;99.90;;;;;;5096220;28;20075;-74
2023/08/02 05:13:58;;;;;;;0.33;0.33;;;14.90;99.90;;;;;;5095944;28;20050;-74
2023/08/02 05:16:25;;;;;;;0.47;0.47;;;14.90;99.90;;;;;;5095871;28;20044;-74
2023/08/02 05:18:51;;;;;;;0.77;0.60;;;14.90;99.90;;;;;;5095808;28;20484;-74
2023/08/02 05:21:18;;;;;;;0.40;0.40;;;15.00;99.90;;;;;;5095967;28;20123;-74
2023/08/02 05:23:44;;;;;;;1.27;0.82;;;15.00;99.90;;;;;;5096017;28;20044;-74
2023/08/02 05:26:10;;;;;;;0.53;0.53;;;15.10;99.90;;;;;;5095736;28;20047;-73
2023/08/02 05:28:36;;;;;;;0.40;0.40;;;15.00;99.90;;;;;;5095362;28;20127;-74
2023/08/02 05:31:02;;;;;;;0.50;0.50;;;15.10;99.90;;;;;;5095800;28;20495;-74
2023/08/02 05:33:28;;;;;;;0.40;0.40;;;15.10;99.90;;;;;;5096170;28;20036;-74
2023/08/02 05:35:54;;;;;;;0.30;0.30;;;15.20;99.90;;;;;;5095601;28;20754;-74
2023/08/02 05:38:20;;;;;;;0.40;0.40;;;15.20;99.90;;;;;;5095559;28;20042;-74
2023/08/02 05:40:46;;;;;;;0.32;0.32;;;15.20;99.90;;;;;;5095409;28;20074;-74
2023/08/02 05:43:11;;;;;;;5.13;0.67;;;15.30;99.90;;;;;;5095345;28;20044;-74
2023/08/02 05:45:37;;;;;;;0.47;0.47;;;15.30;99.90;;;;;;5095626;28;20101;-75
2023/08/02 05:48:03;;;;;;;0.50;0.50;;;15.30;99.90;;;;;;5095501;28;20046;-74
2023/08/02 05:50:29;;;;;;;0.80;0.80;;;15.30;99.90;;;;;;5095499;28;20065;-74
2023/08/02 05:52:55;;;;;;;0.65;0.57;;;15.30;99.90;;;;;;5095431;28;20032;-72
2023/08/02 05:55:21;;;;;;;0.50;0.50;;;15.30;99.90;;;;;;5095414;28;20100;-74
2023/08/02 05:57:48;;;;;;;0.40;0.40;;;15.40;99.90;;;;;;5094974;28;20040;-74
2023/08/02 06:00:14;;;;;;;0.30;0.30;;;15.50;99.90;;;;;;5095328;28;20051;-73
2023/08/02 06:02:40;;;;;;;1.13;1.00;;;15.50;99.90;;;;;;5094945;28;20095;-77
2023/08/02 06:05:06;;;;;;;0.90;0.90;;;15.60;99.90;;;;;;5094913;28;20491;-73
2023/08/02 06:07:32;;;;;;;0.50;0.50;;;15.70;99.90;;;;;;5095052;28;20070;-74
2023/08/02 06:09:58;;;;;;;0.40;0.40;;;15.70;99.90;;;;;;5095239;28;20488;-73
2023/08/02 06:12:24;;;;;;;0.50;0.50;;;15.80;99.90;;;;;;5094743;28;20052;-74
2023/08/02 06:14:49;;;;;;;0.80;0.80;;;15.80;99.90;;;;;;5093801;28;20468;-70
2023/08/02 06:17:15;;;;;;;0.93;0.93;;;15.90;99.90;;;;;;5094963;28;20032;-72
2023/08/02 06:19:41;;;;;;;0.40;0.40;;;15.90;99.90;;;;;;5094374;28;20048;-73
2023/08/02 06:22:07;;;;;;;0.50;0.50;;;15.90;99.90;;;;;;5094978;28;20067;-71
2023/08/02 06:24:33;;;;;;;0.40;0.40;;;15.90;99.90;;;;;;5093640;28;20040;-73
2023/08/02 06:26:58;;;;;;;0.30;0.30;;;15.90;99.90;;;;;;5094326;28;20379;-72
2023/08/02 06:29:24;;;;;;;0.40;0.40;;;16.00;99.90;;;;;;5094771;28;20044;-72
2023/08/02 06:31:50;;;;;;;0.50;0.50;;;16.00;99.90;;;;;;5094811;28;20044;-74
2023/08/02 06:34:15;;;;;;;0.70;0.67;;;16.00;99.90;;;;;;5094698;28;20478;-71
2023/08/02 06:36:41;;;;;;;4.00;1.17;;;16.00;99.90;;;;;;5094405;28;20173;-70
2023/08/02 06:39:07;;;;;;;0.52;0.52;;;16.00;99.90;;;;;;5094361;28;20553;-73
2023/08/02 06:41:32;;;;;;;0.50;0.50;;;16.00;99.90;;;;;;5094047;28;20096;-72
2023/08/02 06:43:58;;;;;;;3.17;1.23;;;16.00;99.90;;;;;;5094352;28;20122;-74
2023/08/02 06:46:23;;;;;;;0.30;0.30;;;16.00;99.90;;;;;;5094411;28;20075;-74
2023/08/02 06:48:49;;;;;;;1.80;0.40;;;16.00;99.90;;;;;;5094537;28;20032;-71
2023/08/02 06:51:15;;;;;;;0.40;0.40;;;16.00;99.90;;;;;;5094355;28;20097;-74
2023/08/02 06:53:40;;;;;;;0.60;0.60;;;16.00;99.90;;;;;;5094352;28;20422;-74
2023/08/02 06:56:16;;;;;;;0.30;0.30;;;16.00;99.90;;;;;;5094133;28;20422;-76
2023/08/02 06:58:43;;;;;;;0.50;0.50;;;16.00;99.90;;;;;;5094145;28;20147;-74
2023/08/02 07:01:27;;;;;;;0.32;0.32;;;16.00;99.90;;;;;;5094098;28;20517;-73
2023/08/02 07:03:52;;;;;;;0.30;0.30;;;16.00;99.90;;;;;;5094167;28;20031;-78
2023/08/02 07:06:20;;;;;;;0.40;0.40;;;16.00;99.90;;;;;;5093912;28;20036;-78
2023/08/02 07:08:46;;;;;;;0.40;0.40;;;16.00;99.90;;;;;;5093522;28;20036;-76
2023/08/02 07:11:12;;;;;;;0.55;0.55;;;16.00;99.90;;;;;;5094028;28;20082;-78
2023/08/02 07:13:43;;;;;;;0.60;0.60;;;16.00;99.90;;;;;;5093952;28;20040;-76
2023/08/02 07:16:09;;;;;;;0.63;0.63;;;16.10;99.90;;;;;;5093659;28;20036;-76
2023/08/02 07:18:34;;;;;;;0.80;0.80;;;16.10;99.90;;;;;;5093805;28;20093;-77
2023/08/02 07:21:05;;;;;;;0.57;0.57;;;16.10;99.90;;;;;;5093979;28;20085;-77
2023/08/02 07:23:31;;;;;;;0.40;0.40;;;16.10;99.90;;;;;;5093888;28;20093;-76
2023/08/02 07:25:56;;;;;;;0.30;0.30;;;16.10;99.90;;;;;;5093887;28;20468;-75
2023/08/02 07:28:22;;;;;;;0.73;0.73;;;16.10;99.90;;;;;;5093890;28;20085;-77
2023/08/02 07:30:48;;;;;;;0.52;0.45;;;16.10;99.90;;;;;;5093313;28;20043;-72
2023/08/02 07:33:13;;;;;;;0.40;0.40;;;16.10;99.90;;;;;;5093725;28;20383;-78
2023/08/02 07:35:39;;;;;;;0.47;0.47;;;16.10;99.90;;;;;;5093808;28;20068;-74
2023/08/02 07:38:05;;;;;;;0.30;0.30;;;16.10;99.90;;;;;;5093143;28;20039;-75
2023/08/02 07:40:30;;;;;;;3.40;1.00;;;16.10;99.90;;;;;;5093377;28;20043;-74
2023/08/02 07:42:56;;;;;;;0.50;0.50;;;16.10;99.90;;;;;;5093954;28;20081;-75
2023/08/02 07:45:22;;;;;;;0.40;0.40;;;16.00;99.90;;;;;;5093493;28;20044;-74
2023/08/02 07:47:47;;;;;;;0.60;0.57;;;16.00;99.90;;;;;;5092446;28;20177;-76
2023/08/02 07:50:13;;;;;;;0.43;0.43;;;16.00;99.90;;;;;;5093407;28;20040;-74
2023/08/02 07:52:39;;;;;;;0.40;0.40;;;15.90;99.90;;;;;;5093080;28;20192;-74
2023/08/02 07:55:05;;;;;;;0.53;0.53;;;15.90;99.90;;;;;;5093560;28;20076;-74
2023/08/02 07:57:32;;;;;;;0.30;0.30;;;15.90;99.90;;;;;;5093542;28;20036;-74
2023/08/02 07:59:58;;;;;;;0.40;0.40;;;15.80;99.90;;;;;;5093394;28;20036;-74
2023/08/02 08:02:25;;;;;;;0.57;0.57;;;15.70;99.90;;;;;;5093266;28;20388;-74
2023/08/02 08:04:51;;;;;;;0.55;0.55;;;15.70;99.90;;;;;;5093323;28;20032;-74
2023/08/02 08:07:17;;;;;;;0.30;0.30;;;15.70;99.90;;;;;;5093193;28;20044;-74
2023/08/02 08:09:43;;;;;;;1.07;1.07;;;15.60;99.90;;;;;;5093723;28;20036;-72
2023/08/02 08:12:09;;;;;;;0.67;0.67;;;15.60;99.90;;;;;;5093737;28;20032;-73
2023/08/02 08:14:35;;;;;;;0.40;0.40;;;15.60;99.90;;;;;;5093514;28;20038;-73
2023/08/02 08:17:01;;;;;;;0.30;0.30;;;15.60;99.90;;;;;;5093268;28;20094;-75
2023/08/02 08:19:28;;;;;;;0.60;0.60;;;15.60;99.90;;;;;;5093276;28;20388;-72
2023/08/02 08:21:54;;;;;;;0.50;0.50;;;15.60;99.90;;;;;;5093179;28;20079;-75
2023/08/02 08:24:20;;;;;;;0.40;0.40;;;15.60;99.90;;;;;;5093071;28;20409;-76
2023/08/02 08:26:46;;;;;;;0.60;0.50;;;15.60;99.90;;;;;;5093504;28;20040;-77
2023/08/02 08:29:11;;;;;;;0.77;0.77;;;15.70;99.90;;;;;;5093285;28;20368;-76
2023/08/02 08:31:38;;;;;;;0.70;0.70;;;15.70;99.90;;;;;;5093007;28;20069;-75
2023/08/02 08:34:03;;;;;;;1.08;0.80;;;15.70;99.90;;;;;;5093014;28;20099;-77
2023/08/02 08:36:29;;;;;;;0.33;0.33;;;15.80;99.90;;;;;;5092973;28;20506;-77
2023/08/02 08:38:56;;;;;;;0.43;0.43;;;15.80;99.90;;;;;;5093013;28;20076;-79
2023/08/02 08:41:21;;;;;;;0.50;0.40;;;15.80;99.90;;;;;;5091964;28;20089;-79
2023/08/02 08:43:47;;;;;;;1.30;0.87;;;15.90;99.90;;;;;;5095658;28;20488;-79
2023/08/02 08:46:14;;;;;;;0.53;0.50;;;15.90;99.90;;;;;;5096724;28;20043;-82
2023/08/02 08:48:40;;;;;;;0.60;0.60;;;16.00;99.90;;;;;;5095589;28;20047;-86
2023/08/02 08:51:11;;;;;;;0.40;0.40;;;16.20;99.90;;;;;;5096202;28;20044;-74
2023/08/02 08:53:43;;;;;;;0.55;0.50;;;16.30;99.90;;;;;;5096559;28;20047;-74
2023/08/02 08:56:09;;;;;;;0.50;0.50;;;16.40;99.90;;;;;;5096595;28;20036;-74
2023/08/02 08:58:37;;;;;;;0.30;0.30;;;16.50;99.90;;;;;;5096526;28;20134;-78
2023/08/02 09:01:04;;;;;;;0.75;0.65;;;16.60;99.90;;;;;;5096444;28;20047;-75
2023/08/02 09:03:31;;;;;;;0.50;0.50;;;16.70;99.90;;;;;;5096332;28;20035;-73
2023/08/02 09:06:01;;;;;;;0.50;0.50;;;16.60;99.90;;;;;;5096116;28;20042;-74
2023/08/02 09:08:28;;;;;;;0.50;0.50;;;16.60;99.90;;;;;;5096217;28;20040;-72
2023/08/02 09:10:53;;;;;;;0.88;0.80;;;16.50;99.90;;;;;;5096382;28;20040;-74
2023/08/02 09:13:22;;;;;;;0.60;0.60;;;16.40;99.90;;;;;;5096264;28;20469;-73
2023/08/02 09:16:04;;;;;;;1.02;1.02;;;16.30;99.90;;;;;;5094960;28;20036;-78
2023/08/02 09:18:40;;;;;;;0.65;0.47;;;16.30;99.90;;;;;;5095638;28;20051;-76
2023/08/02 09:21:08;;;;;;;0.20;0.20;;;16.20;99.90;;;;;;5096093;28;20127;-77
2023/08/02 09:23:34;;;;;;;0.45;0.40;;;16.20;99.90;;;;;;5095037;28;20427;-77
2023/08/02 09:26:11;;;;;;;0.45;0.45;;;16.20;99.90;;;;;;5096043;28;20438;-78
2023/08/02 09:28:37;;;;;;;0.30;0.30;;;16.30;99.90;;;;;;5095907;28;20036;-75
2023/08/02 09:31:34;;;;;;;0.43;0.40;;;16.30;99.90;;;;;;5095816;28;20046;-77
2023/08/02 09:34:00;;;;;;;1.30;0.98;;;16.40;99.90;;;;;;5082528;28;20048;-77
2023/08/02 09:36:30;;;;;;;0.40;0.40;;;16.40;99.90;;;;;;5095747;28;20198;-79
2023/08/02 09:39:02;;;;;;;0.40;0.40;;;16.40;99.90;;;;;;5095422;28;20047;-76
2023/08/02 09:41:29;;;;;;;0.60;0.60;;;16.30;99.90;;;;;;5095234;28;20040;-76
2023/08/02 09:43:56;;;;;;;0.50;0.50;;;16.30;99.90;;;;;;5095611;28;20036;-76
2023/08/02 09:46:34;;;;;;;0.30;0.30;;;16.30;99.90;;;;;;5095675;28;20070;-75
2023/08/02 09:49:21;;;;;;;0.43;0.43;;;16.30;99.90;;;;;;5100663;28;20376;-78
2023/08/02 09:51:46;;;;;;;0.40;0.40;;;16.30;99.90;;;;;;5094918;28;20058;-76
2023/08/02 09:54:13;;;;;;;0.30;0.30;;;16.40;99.90;;;;;;5094952;28;20040;-76
2023/08/02 09:56:41;;;;;;;0.35;0.35;;;16.30;99.90;;;;;;5095360;28;20040;-74
2023/08/02 09:59:08;;;;;;;0.30;0.30;;;16.30;99.90;;;;;;5095351;28;20047;-75
2023/08/02 10:01:35;;;;;;;0.50;0.50;;;16.30;99.90;;;;;;5095135;28;20036;-79
2023/08/02 10:04:06;;;;;;;0.30;0.30;;;16.30;99.90;;;;;;5094041;28;20452;-81
2023/08/02 10:06:38;;;;;;;0.30;0.30;;;16.30;99.90;;;;;;5095860;28;20392;-74
2023/08/02 10:09:07;;;;;;;0.40;0.40;;;16.30;99.90;;;;;;5098597;28;20066;-76
2023/08/02 10:11:45;;;;;;;0.30;0.30;;;16.30;99.90;;;;;;5094998;28;20046;-77
2023/08/02 10:14:12;;;;;;;1.73;0.50;;;16.30;99.90;;;;;;5095001;28;20153;-74
2023/08/02 10:16:39;;;;;;;0.30;0.30;;;16.30;99.90;;;;;;5094834;28;20051;-81
2023/08/02 10:19:06;;;;;;;0.30;0.30;;;16.30;99.90;;;;;;5094567;28;20048;-77
2023/08/02 10:21:35;;;;;;;0.30;0.30;;;16.40;99.90;;;;;;5094822;28;20039;-76
2023/08/02 10:24:01;;;;;;;0.68;0.68;;;16.40;99.90;;;;;;5094758;28;20035;-77
2023/08/02 10:26:30;;;;;;;0.30;0.30;;;16.50;99.90;;;;;;5094790;28;20040;-76
2023/08/02 10:29:02;;;;;;;0.40;0.40;;;16.50;99.90;;;;;;5094319;28;20058;-72
2023/08/02 10:31:28;;;;;;;0.30;0.30;;;16.50;99.90;;;;;;5093975;28;20364;-76
2023/08/02 10:33:54;;;;;;;;;;;16.50;99.90;;;;;;5094859;28;20043;-73
2023/08/02 10:36:20;;;;;;;0.30;0.30;;;16.60;99.90;;;;;;5094481;28;20313;-73
2023/08/02 10:38:48;;;;;;;0.30;0.30;;;16.70;99.90;;;;;;5094519;28;20080;-73
2023/08/02 10:41:19;;;;;;;0.30;0.30;;;16.60;99.90;;;;;;5094434;28;20082;-74
2023/08/02 10:43:54;;;;;;;0.55;0.30;;;16.70;99.90;;;;;;5094200;28;20036;-72
2023/08/02 10:46:24;;;;;;;0.30;0.30;;;16.70;99.90;;;;;;5094125;28;20051;-72
2023/08/02 10:48:51;;;;;;;0.30;0.30;;;16.70;99.90;;;;;;5094813;28;20055;-74
2023/08/02 10:51:39;;;;;;;0.28;0.28;;;16.80;99.90;;;;;;5094306;28;20051;-80
2023/08/02 10:54:14;;;;;;;;;;;16.80;99.90;;;;;;5094476;28;20131;-77
2023/08/02 10:56:51;;;;;;;0.55;0.55;;;16.80;99.90;;;;;;5093866;28;20244;-77
2023/08/02 10:59:23;;;;;;;0.35;0.35;;;16.90;99.90;;;;;;5094040;28;20358;-77
2023/08/02 11:02:09;;;;;;;0.30;0.30;;;17.00;99.90;;;;;;5094004;28;20040;-76
2023/08/02 11:04:39;;;;;;;0.30;0.30;;;17.00;99.90;;;;;;5094032;28;20040;-79
2023/08/02 11:07:12;;;;;;;0.30;0.30;;;17.00;99.90;;;;;;5093357;28;20044;-76
2023/08/02 11:09:38;;;;;;;0.30;0.30;;;17.10;99.90;;;;;;5094478;28;20127;-75
2023/08/02 11:12:17;;;;;;;0.30;0.30;;;17.10;99.90;;;;;;5094064;28;20384;-75
2023/08/02 11:14:49;;;;;;;0.30;0.30;;;17.00;99.90;;;;;;5093922;28;20491;-77
2023/08/02 11:17:22;;;;;;;0.32;0.32;;;17.00;99.90;;;;;;5094017;28;20040;-80
2023/08/02 11:19:50;;;;;;;0.30;0.30;;;17.00;99.90;;;;;;5092464;28;20044;-82
2023/08/02 11:22:16;;;;;;;0.30;0.30;;;17.10;99.90;;;;;;5093862;28;20131;-77
2023/08/02 11:24:50;;;;;;;0.40;0.40;;;17.10;99.90;;;;;;5093679;28;20483;-76
2023/08/02 11:27:26;;;;;;;0.40;0.40;;;17.20;99.90;;;;;;5093834;28;20040;-77
2023/08/02 11:30:07;;;;;;;0.30;0.30;;;17.20;99.90;;;;;;5093572;28;20161;-77
2023/08/02 11:32:41;;;;;;;0.20;0.20;;;17.30;99.90;;;;;;5093729;28;20036;-76
2023/08/02 11:35:07;;;;;;;0.32;0.32;;;17.50;99.90;;;;;;5093707;28;20046;-77
2023/08/02 11:37:36;;;;;;;0.30;0.30;;;17.60;99.90;;;;;;5093837;28;20044;-78
2023/08/02 11:40:02;;;;;;;0.35;0.35;;;17.70;99.90;;;;;;5093676;28;20082;-76
2023/08/02 11:42:28;;;;;;;0.33;0.33;;;17.80;99.90;;;;;;5093509;28;20072;-76
2023/08/02 11:44:53;;;;;;;0.30;0.30;;;17.80;99.90;;;;;;5093352;28;20052;-74
2023/08/02 11:47:20;;;;;;;0.27;0.27;;;17.80;99.90;;;;;;5093742;28;20380;-76
2023/08/02 11:49:52;;;;;;;0.20;0.20;;;17.90;99.90;;;;;;5093299;28;20476;-79
2023/08/02 11:52:29;;;;;;;0.25;0.25;;;17.90;99.90;;;;;;5093483;28;20083;-78
2023/08/02 11:54:55;;;;;;;0.30;0.30;;;17.90;99.90;;;;;;5093343;28;20469;-77
2023/08/02 11:57:22;;;;;;;0.20;0.20;;;18.00;99.90;;;;;;5093475;28;20054;-80
2023/08/02 11:59:56;;;;;;;0.30;0.30;;;18.10;99.90;;;;;;5092940;28;20382;-78
2023/08/02 12:02:29;;;;;;;0.30;0.30;;;18.20;99.90;;;;;;5093682;28;20413;-76
2023/08/02 12:04:56;;;;;;;0.30;0.30;;;18.10;99.90;;;;;;5075728;28;20459;-76
2023/08/02 12:07:32;;;;;;;0.30;0.30;;;18.20;99.90;;;;;;5093424;28;20380;-77
2023/08/02 12:09:58;;;;;;;0.30;0.30;;;18.30;99.90;;;;;;5093045;28;20036;-75
2023/08/02 12:12:35;;;;;;;0.20;0.20;;;18.40;99.90;;;;;;5093325;28;20032;-76
2023/08/02 12:15:11;;;;;;;0.30;0.30;;;18.50;99.90;;;;;;5093504;28;20130;-76
2023/08/02 12:17:37;;;;;;;0.25;0.25;;;18.80;99.90;;;;;;5094870;28;20032;-79
2023/08/02 12:20:06;;;;;;;0.32;0.32;;;19.20;99.90;;;;;;5096857;28;20356;-76
2023/08/02 12:22:47;;;;;;;0.40;0.40;;;19.40;99.90;;;;;;5097094;28;20055;-77
2023/08/02 12:25:12;;;;;;;0.20;0.20;;;19.50;99.90;;;;;;5097106;28;20047;-82
2023/08/02 12:27:38;;;;;;;0.30;0.30;;;19.70;99.90;;;;;;5096743;28;20123;-74
2023/08/02 12:30:10;;;;;;;0.30;0.30;;;19.80;99.90;;;;;;5096715;28;20044;-77
2023/08/02 12:32:35;;;;;;;0.30;0.30;;;20.00;99.90;;;;;;5096827;28;20476;-75
2023/08/02 12:35:09;;;;;;;0.40;0.40;;;20.10;99.90;;;;;;5096995;28;20127;-75
2023/08/02 12:37:35;;;;;;;0.47;0.40;;;20.20;99.90;;;;;;5096453;28;20032;-75
2023/08/02 12:40:01;;;;;;;0.40;0.40;;;20.30;99.90;;;;;;5095236;28;20058;-77
2023/08/02 12:42:27;;;;;;;0.45;0.22;;;20.20;99.90;;;;;;5094406;28;20040;-77
2023/08/02 12:44:53;;;;;;;0.40;0.40;;;20.20;99.90;;;;;;5094614;28;20040;-77
2023/08/02 12:47:18;;;;;;;0.40;0.40;;;20.20;99.90;;;;;;5094606;28;20046;-77
2023/08/02 12:49:44;;;;;;;0.30;0.30;;;20.20;99.90;;;;;;5094633;28;20098;-75